createdAt,value
2017-12-10T17:00:10.379Z,20.22
2017-12-10T17:02:36.851Z,20.24
2017-12-10T17:05:03.328Z,20.23
2017-12-10T17:07:29.825Z,20.25
2017-12-10T17:09:56.301Z,20.29
2017-12-10T17:12:22.802Z,20.28
2017-12-10T17:14:49.279Z,20.27
2017-12-10T17:17:15.706Z,20.28
2017-12-10T17:21:01.005Z,20.26
2017-12-10T17:23:27.505Z,19.89
2017-12-10T17:25:53.987Z,19.81
2017-12-10T17:28:20.456Z,19.78
2017-12-10T17:30:46.959Z,19.73
2017-12-10T17:33:13.436Z,19.68
2017-12-10T17:35:40.236Z,19.67
2017-12-10T17:38:06.680Z,19.65
2017-12-10T17:40:33.149Z,19.63
2017-12-10T17:42:59.652Z,19.62
2017-12-10T17:45:26.136Z,19.61
2017-12-10T17:47:52.649Z,19.65
2017-12-10T17:50:19.125Z,19.70
2017-12-10T17:52:45.637Z,19.72
2017-12-10T17:55:12.116Z,19.74
2017-12-10T17:57:38.636Z,19.73
2017-12-10T18:00:05.114Z,19.76
2017-12-10T18:02:31.582Z,19.77
2017-12-10T18:04:57.996Z,19.80
2017-12-10T18:07:24.483Z,19.80
2017-12-10T18:09:50.892Z,19.81
2017-12-10T18:12:17.305Z,19.82
2017-12-10T18:14:43.743Z,19.78
2017-12-10T18:17:10.160Z,19.72
2017-12-10T18:19:36.600Z,19.70
2017-12-10T18:22:03.020Z,19.68
2017-12-10T18:24:29.465Z,19.65
2017-12-10T18:26:55.885Z,19.64
2017-12-10T18:29:22.325Z,19.62
2017-12-10T18:31:48.741Z,19.61
2017-12-10T18:34:15.454Z,19.61
2017-12-10T18:36:41.877Z,19.59
2017-12-10T18:39:08.292Z,19.58
2017-12-10T18:41:34.741Z,19.58
2017-12-10T18:44:01.160Z,19.56
2017-12-10T18:46:27.577Z,19.53
2017-12-10T18:48:54.018Z,19.51
2017-12-10T18:51:20.435Z,19.49
2017-12-10T18:53:46.898Z,19.49
2017-12-10T18:56:13.361Z,19.48
2017-12-10T18:58:40.044Z,19.45
2017-12-10T19:01:06.459Z,19.44
2017-12-10T19:03:32.877Z,19.43
2017-12-10T19:05:59.331Z,19.42
2017-12-10T19:08:25.737Z,19.41
2017-12-10T19:10:52.158Z,19.40
2017-12-10T19:13:18.709Z,19.39
2017-12-10T19:15:45.130Z,19.38
2017-12-10T19:18:11.546Z,19.37
2017-12-10T19:20:37.989Z,19.35
2017-12-10T19:23:04.403Z,19.33
2017-12-10T19:25:30.894Z,19.31
2017-12-10T19:27:57.311Z,19.27
2017-12-10T19:30:23.815Z,19.26
2017-12-10T19:32:50.259Z,19.22
2017-12-10T19:35:16.683Z,19.03
2017-12-10T19:37:43.133Z,18.46
2017-12-10T19:40:09.603Z,18.13
2017-12-10T19:42:35.975Z,18.09
2017-12-10T19:45:02.414Z,18.40
2017-12-10T19:47:28.839Z,18.52
2017-12-10T19:49:55.286Z,18.56
2017-12-10T19:52:21.727Z,18.57
2017-12-10T19:54:48.389Z,18.57
2017-12-10T19:57:14.803Z,18.59
2017-12-10T19:59:41.226Z,18.67
2017-12-10T20:02:07.674Z,18.77
2017-12-10T20:04:34.119Z,18.86
2017-12-10T20:07:00.614Z,18.91
2017-12-10T20:09:27.019Z,18.96
2017-12-10T20:11:53.464Z,18.98
2017-12-10T20:14:19.880Z,18.99
2017-12-10T20:16:46.301Z,19.02
2017-12-10T20:19:12.744Z,19.03
2017-12-10T20:21:39.162Z,19.04
2017-12-10T20:24:05.610Z,19.03
2017-12-10T20:26:32.136Z,19.06
2017-12-10T20:28:58.572Z,19.06
2017-12-10T20:31:24.997Z,19.07
2017-12-10T20:33:51.441Z,19.06
2017-12-10T20:36:17.861Z,19.04
2017-12-10T20:38:44.547Z,19.03
2017-12-10T20:41:10.957Z,19.04
2017-12-10T20:43:37.378Z,19.04
2017-12-10T20:46:03.818Z,19.02
2017-12-10T20:48:30.243Z,19.02
2017-12-10T20:50:56.679Z,19.03
2017-12-10T20:53:23.094Z,19.05
2017-12-10T20:55:49.533Z,19.06
2017-12-10T20:58:15.954Z,19.19
2017-12-10T21:00:42.374Z,19.07
2017-12-10T21:03:08.825Z,18.90
2017-12-10T21:05:35.248Z,18.82
2017-12-10T21:08:01.677Z,18.79
2017-12-10T21:10:28.125Z,18.72
2017-12-10T21:12:54.530Z,18.69
2017-12-10T21:15:20.967Z,18.67
2017-12-10T21:17:47.389Z,18.63
2017-12-10T21:20:13.832Z,18.60
2017-12-10T21:22:40.236Z,18.57
2017-12-10T21:25:06.669Z,18.56
2017-12-10T21:27:33.111Z,18.53
2017-12-10T21:29:59.529Z,18.51
2017-12-10T21:32:25.966Z,18.48
2017-12-10T21:34:52.384Z,18.46
2017-12-10T21:37:18.818Z,18.45
2017-12-10T21:39:45.249Z,18.44
2017-12-10T21:42:11.671Z,18.44
2017-12-10T21:44:38.111Z,18.41
2017-12-10T21:47:04.525Z,18.36
2017-12-10T21:49:30.953Z,18.37
2017-12-10T21:51:57.700Z,18.35
2017-12-10T21:54:24.112Z,18.33
2017-12-10T21:56:50.531Z,18.34
2017-12-10T21:59:16.963Z,18.31
2017-12-10T22:01:43.388Z,18.30
2017-12-10T22:04:09.821Z,18.30
2017-12-10T22:06:36.236Z,18.32
2017-12-10T22:09:02.672Z,18.32
2017-12-10T22:11:29.083Z,18.29
2017-12-10T22:13:55.504Z,18.30
2017-12-10T22:16:21.941Z,18.28
2017-12-10T22:18:48.363Z,18.25
2017-12-10T22:21:14.798Z,18.24
2017-12-10T22:23:41.230Z,18.24
2017-12-10T22:26:07.649Z,18.23
2017-12-10T22:28:34.088Z,18.20
2017-12-10T22:31:00.498Z,18.18
2017-12-10T22:33:26.944Z,18.19
2017-12-10T22:35:53.361Z,18.17
2017-12-10T22:38:19.797Z,18.15
2017-12-10T22:40:46.243Z,18.14
2017-12-10T22:43:12.658Z,18.10
2017-12-10T22:45:39.096Z,18.11
2017-12-10T22:48:05.510Z,18.11
2017-12-10T22:50:32.097Z,18.08
2017-12-10T22:52:58.510Z,18.07
2017-12-10T22:55:24.926Z,18.03
2017-12-10T22:57:51.365Z,18.04
2017-12-10T23:00:17.774Z,18.03
2017-12-10T23:02:44.206Z,18.02
2017-12-10T23:05:10.840Z,18.00
2017-12-10T23:07:37.252Z,17.98
2017-12-10T23:10:03.671Z,17.96
2017-12-10T23:12:30.100Z,17.95
2017-12-10T23:14:56.517Z,17.93
2017-12-10T23:17:22.930Z,17.92
2017-12-10T23:19:49.367Z,17.91
2017-12-10T23:22:15.780Z,17.90
2017-12-10T23:24:42.214Z,17.88
2017-12-10T23:27:08.626Z,17.87
2017-12-10T23:29:35.068Z,17.86
2017-12-10T23:32:01.501Z,17.86
2017-12-10T23:34:27.924Z,17.85
2017-12-10T23:36:54.355Z,17.80
2017-12-10T23:39:20.792Z,17.80
2017-12-10T23:41:47.212Z,17.80
2017-12-10T23:44:13.628Z,17.79
2017-12-10T23:46:40.056Z,17.78
2017-12-10T23:49:06.476Z,17.77
2017-12-10T23:51:32.920Z,17.75
2017-12-10T23:53:59.337Z,17.75
2017-12-10T23:56:25.756Z,17.75
2017-12-10T23:58:52.186Z,17.73
